createdAt,value
2019-05-14T00:03:21.745Z,47.26
2019-05-14T00:07:11.585Z,47.89
2019-05-14T00:11:01.204Z,48.10
2019-05-14T00:14:45.241Z,48.00
2019-05-14T00:18:26.833Z,48.62
2019-05-14T00:22:02.826Z,48.68
2019-05-14T00:25:45.381Z,48.90
2019-05-14T00:29:11.157Z,48.57
2019-05-14T00:32:53.573Z,49.15
2019-05-14T00:36:31.972Z,49.75
2019-05-14T00:40:15.050Z,50.53
2019-05-14T00:43:51.395Z,50.19
2019-05-14T00:47:34.299Z,51.22
2019-05-14T00:50:57.671Z,51.30
2019-05-14T00:54:41.743Z,51.75
2019-05-14T00:58:25.354Z,52.06
2019-05-14T01:02:07.938Z,53.51
2019-05-14T01:29:47.768Z,53.25
2019-05-14T01:33:11.828Z,54.46
2019-05-14T01:36:56.242Z,54.51
2019-05-14T01:40:38.825Z,54.89
2019-05-14T01:44:15.044Z,55.44
2019-05-14T01:47:38.297Z,54.72
2019-05-14T01:51:01.856Z,55.69
2019-05-14T01:54:24.983Z,55.62
2019-05-14T01:57:48.164Z,55.76
2019-05-14T02:01:12.010Z,56.08
2019-05-14T02:04:35.558Z,56.34
2019-05-14T02:07:58.854Z,56.41
2019-05-14T02:11:21.982Z,56.35
2019-05-14T02:14:45.154Z,57.11
2019-05-14T02:18:08.592Z,57.14
2019-05-14T02:21:31.949Z,57.13
2019-05-14T02:24:55.641Z,57.37
2019-05-14T02:28:18.889Z,57.14
2019-05-14T02:31:42.061Z,57.81
2019-05-14T02:35:05.355Z,58.22
2019-05-14T02:38:29.981Z,58.66
2019-05-14T02:41:53.526Z,58.26
2019-05-14T02:45:19.723Z,58.78
2019-05-14T02:48:42.121Z,58.95
2019-05-14T02:52:05.665Z,59.41
2019-05-14T02:55:29.973Z,59.35
2019-05-14T02:58:53.724Z,59.22
2019-05-14T03:02:18.755Z,59.34
2019-05-14T03:05:42.803Z,59.79
2019-05-14T03:09:09.387Z,59.67
2019-05-14T03:12:31.606Z,60.08
2019-05-14T03:15:54.891Z,60.05
2019-05-14T03:19:19.588Z,60.86
2019-05-14T03:22:58.715Z,61.68
2019-05-14T03:26:09.587Z,61.33
2019-05-14T03:29:33.009Z,61.49
2019-05-14T03:33:01.993Z,61.95
2019-05-14T03:36:26.734Z,63.08
2019-05-14T03:39:49.376Z,62.30
2019-05-14T03:43:12.294Z,62.51
2019-05-14T03:46:45.938Z,62.14
2019-05-14T03:50:00.590Z,62.50
2019-05-14T03:53:24.376Z,62.28
2019-05-14T03:56:49.620Z,62.63
2019-05-14T04:00:13.323Z,62.98
2019-05-14T04:03:39.571Z,63.41
2019-05-14T04:07:03.645Z,63.25
2019-05-14T04:10:30.094Z,63.86
2019-05-14T04:13:59.862Z,63.48
2019-05-14T04:17:32.399Z,63.22
2019-05-14T04:20:50.434Z,63.27
2019-05-14T04:24:14.340Z,62.39
2019-05-14T04:27:40.393Z,62.37
2019-05-14T04:31:04.885Z,63.14
2019-05-14T04:34:30.068Z,63.10
2019-05-14T04:37:53.576Z,63.40
2019-05-14T04:41:19.521Z,63.25
2019-05-14T04:44:42.372Z,63.78
2019-05-14T04:48:26.404Z,63.71
2019-05-14T04:51:30.710Z,64.05
2019-05-14T04:54:54.121Z,64.09
2019-05-14T04:58:21.545Z,64.38
2019-05-14T05:01:44.127Z,63.42
2019-05-14T05:05:09.113Z,65.15
2019-05-14T05:08:32.609Z,64.68
2019-05-14T05:11:55.927Z,64.65
2019-05-14T05:15:19.923Z,63.88
2019-05-14T05:18:43.807Z,63.42
2019-05-14T05:22:08.014Z,64.25
2019-05-14T05:25:32.578Z,64.26
2019-05-14T05:29:05.545Z,63.81
2019-05-14T05:32:54.127Z,63.62
2019-05-14T05:36:18.783Z,63.57
2019-05-14T05:39:42.118Z,63.37
2019-05-14T05:43:05.461Z,63.69
2019-05-14T05:46:29.024Z,63.44
2019-05-14T05:49:52.478Z,63.46
2019-05-14T05:53:16.257Z,64.20
2019-05-14T05:56:39.736Z,61.56
2019-05-14T06:00:04.898Z,62.01
2019-05-14T06:03:30.152Z,62.11
2019-05-14T06:06:54.597Z,61.62
2019-05-14T06:10:21.010Z,61.54
2019-05-14T06:13:55.463Z,61.02
2019-05-14T06:17:19.413Z,60.12
2019-05-14T06:20:42.949Z,59.59
2019-05-14T06:24:08.873Z,59.19
2019-05-14T06:27:32.251Z,59.12
2019-05-14T06:30:59.018Z,58.82
2019-05-14T06:34:22.901Z,57.33
2019-05-14T06:37:48.809Z,57.41
2019-05-14T06:41:12.460Z,57.58
2019-05-14T06:44:38.574Z,57.32
2019-05-14T06:48:02.412Z,55.97
2019-05-14T06:51:28.710Z,55.96
2019-05-14T06:54:52.010Z,56.47
2019-05-14T06:58:15.743Z,55.55
2019-05-14T07:01:39.615Z,55.05
2019-05-14T07:05:03.732Z,53.82
2019-05-14T07:08:28.506Z,53.79
2019-05-14T07:11:52.618Z,53.38
2019-05-14T07:15:18.243Z,52.05
2019-05-14T07:18:49.614Z,52.36
2019-05-14T07:22:08.883Z,50.79
2019-05-14T07:25:32.831Z,50.61
2019-05-14T07:28:58.907Z,50.28
2019-05-14T07:32:28.533Z,48.56
2019-05-14T07:35:50.800Z,47.98
2019-05-14T07:39:14.366Z,49.52
2019-05-14T07:42:38.341Z,49.82
2019-05-14T07:46:02.774Z,48.42
2019-05-14T07:49:25.889Z,48.65
2019-05-14T07:52:49.745Z,48.92
2019-05-14T07:56:13.481Z,50.74
2019-05-14T07:59:38.073Z,49.37
2019-05-14T08:03:01.461Z,48.30
2019-05-14T08:06:24.652Z,47.94
2019-05-14T08:09:48.148Z,47.76
2019-05-14T08:13:11.608Z,48.25
2019-05-14T08:16:34.754Z,47.69
2019-05-14T08:19:58.405Z,47.02
2019-05-14T08:23:22.830Z,45.61
2019-05-14T08:26:46.104Z,46.44
2019-05-14T08:30:09.975Z,47.09
2019-05-14T08:33:33.333Z,45.85
2019-05-14T08:36:58.711Z,48.21
2019-05-14T08:40:21.686Z,47.05
2019-05-14T08:43:44.929Z,47.31
2019-05-14T08:47:09.563Z,47.85
2019-05-14T08:50:33.149Z,46.93
2019-05-14T08:53:58.952Z,49.00
2019-05-14T08:57:22.757Z,48.21
2019-05-14T09:00:48.084Z,46.86
2019-05-14T09:04:11.194Z,46.80
2019-05-14T09:07:34.405Z,46.43
2019-05-14T09:10:58.996Z,44.90
2019-05-14T09:14:23.699Z,44.50
2019-05-14T09:17:48.341Z,45.42
2019-05-14T09:21:12.568Z,44.33
2019-05-14T09:24:38.444Z,43.02
2019-05-14T09:28:01.775Z,43.59
2019-05-14T09:31:24.957Z,42.08
2019-05-14T09:34:48.845Z,41.50
2019-05-14T09:38:12.478Z,40.95
2019-05-14T09:41:35.705Z,39.90
2019-05-14T09:44:59.616Z,40.05
2019-05-14T09:48:23.158Z,39.19
2019-05-14T09:51:48.738Z,37.91
2019-05-14T09:55:11.556Z,36.62
2019-05-14T09:58:34.899Z,36.24
2019-05-14T10:01:58.575Z,36.31
2019-05-14T10:05:22.343Z,36.94
2019-05-14T10:08:45.576Z,36.16
2019-05-14T10:12:09.157Z,33.24
2019-05-14T10:15:33.473Z,33.50
2019-05-14T10:18:56.680Z,31.11
2019-05-14T10:22:21.042Z,32.27
2019-05-14T10:25:44.886Z,31.20
2019-05-14T10:29:08.692Z,33.78
2019-05-14T10:32:32.261Z,31.07
2019-05-14T10:35:55.937Z,30.54
2019-05-14T10:39:19.378Z,32.20
2019-05-14T10:42:42.964Z,31.14
2019-05-14T10:46:08.867Z,28.09
2019-05-14T10:49:31.210Z,29.55
2019-05-14T10:52:54.300Z,29.29
2019-05-14T10:56:19.253Z,27.01
2019-05-14T10:59:42.828Z,26.25
2019-05-14T11:03:06.217Z,26.57
2019-05-14T11:06:29.575Z,26.26
2019-05-14T11:09:53.884Z,26.53
2019-05-14T11:13:19.026Z,26.42
2019-05-14T11:16:42.163Z,26.54
2019-05-14T11:20:07.968Z,26.89
2019-05-14T11:23:31.121Z,26.84
2019-05-14T11:26:54.237Z,27.22
2019-05-14T11:30:19.321Z,26.33
2019-05-14T11:33:42.802Z,26.87
2019-05-14T11:37:08.542Z,27.46
2019-05-14T11:40:33.238Z,26.62
2019-05-14T11:43:59.205Z,26.60
2019-05-14T11:47:21.536Z,23.03
2019-05-14T11:50:44.713Z,24.23
2019-05-14T11:54:09.497Z,24.58
2019-05-14T11:57:33.283Z,23.69
2019-05-14T12:00:58.453Z,24.13
2019-05-14T12:04:21.620Z,25.39
2019-05-14T12:07:44.861Z,25.35
2019-05-14T12:11:08.800Z,25.45
2019-05-14T12:14:33.271Z,22.40
2019-05-14T12:17:59.393Z,22.75
2019-05-14T12:21:21.803Z,22.57
2019-05-14T12:24:44.927Z,25.28
2019-05-14T12:28:13.410Z,21.89
2019-05-14T12:31:33.330Z,22.65
2019-05-14T12:34:59.193Z,22.17
2019-05-14T12:38:21.785Z,20.85
2019-05-14T12:41:46.010Z,22.35
2019-05-14T12:45:10.270Z,20.29
2019-05-14T12:48:33.921Z,20.47
2019-05-14T12:51:59.195Z,22.10
2019-05-14T12:55:22.452Z,20.36
2019-05-14T12:58:48.810Z,21.43
2019-05-14T13:02:11.679Z,20.00
2019-05-14T13:05:34.878Z,22.26
2019-05-14T13:08:58.703Z,20.11
2019-05-14T13:12:22.087Z,21.38
2019-05-14T13:15:45.281Z,22.11
2019-05-14T13:19:09.198Z,20.40
2019-05-14T13:22:42.551Z,19.69
2019-05-14T13:25:58.886Z,20.82
2019-05-14T13:29:22.634Z,19.70
2019-05-14T13:32:48.544Z,19.38
2019-05-14T13:36:12.225Z,19.90
2019-05-14T13:39:35.519Z,20.20
2019-05-14T13:42:58.919Z,20.50
2019-05-14T13:46:22.872Z,20.04
2019-05-14T13:49:48.501Z,20.26
2019-05-14T13:53:12.740Z,20.23
2019-05-14T13:56:38.871Z,19.98
2019-05-14T14:00:01.813Z,20.34
2019-05-14T14:03:25.461Z,19.65
2019-05-14T14:06:49.518Z,18.92
2019-05-14T14:10:23.902Z,17.44
2019-05-14T14:14:08.978Z,20.08
2019-05-14T14:17:32.472Z,19.90
2019-05-14T14:20:55.737Z,18.58
2019-05-14T14:24:19.687Z,19.90
2019-05-14T14:27:42.996Z,16.91
2019-05-14T14:31:10.831Z,18.87
2019-05-14T14:34:32.550Z,19.10
2019-05-14T14:37:55.962Z,18.88
2019-05-14T14:41:19.999Z,18.31
2019-05-14T14:44:43.172Z,17.68
2019-05-14T14:48:16.414Z,18.52
2019-05-14T14:51:58.741Z,17.88
2019-05-14T14:55:21.197Z,18.48
2019-05-14T14:58:49.110Z,19.71
2019-05-14T15:02:11.623Z,18.78
2019-05-14T15:05:35.374Z,19.96
2019-05-14T15:08:59.056Z,19.87
2019-05-14T15:12:22.483Z,18.62
2019-05-14T15:15:55.190Z,18.18
2019-05-14T15:19:22.197Z,18.07
2019-05-14T15:22:50.026Z,18.30
2019-05-14T15:26:13.966Z,16.79
2019-05-14T15:29:39.047Z,16.55
2019-05-14T15:33:03.242Z,14.82
2019-05-14T15:36:26.962Z,15.68
2019-05-14T15:39:50.511Z,14.51
2019-05-14T15:43:19.425Z,15.11
2019-05-14T15:46:45.856Z,14.83
2019-05-14T15:50:09.652Z,14.12
2019-05-14T15:53:33.444Z,15.48
2019-05-14T15:56:58.756Z,14.07
2019-05-14T16:00:22.251Z,15.28
2019-05-14T16:04:23.651Z,14.87
2019-05-14T16:07:51.073Z,14.46
2019-05-14T16:11:14.431Z,16.10
2019-05-14T16:14:40.046Z,15.19
2019-05-14T16:18:09.297Z,14.50
2019-05-14T16:21:28.983Z,15.46
2019-05-14T16:24:56.939Z,15.84
2019-05-14T16:28:19.513Z,17.20
2019-05-14T16:31:43.760Z,18.21
2019-05-14T16:35:08.891Z,19.68
2019-05-14T16:38:32.683Z,19.43
2019-05-14T16:41:58.159Z,24.40
2019-05-14T16:45:21.458Z,21.40
2019-05-14T16:48:44.923Z,20.96
2019-05-14T16:52:09.389Z,23.52
2019-05-14T16:55:32.847Z,21.81
2019-05-14T16:58:58.350Z,24.02
2019-05-14T17:02:23.447Z,23.80
2019-05-14T17:05:48.657Z,25.22
2019-05-14T17:09:18.785Z,25.38
2019-05-14T17:12:52.473Z,25.99
2019-05-14T17:28:14.549Z,25.94
2019-05-14T17:31:39.103Z,27.13
2019-05-14T17:35:02.456Z,28.57
2019-05-14T17:38:26.153Z,28.19
2019-05-14T17:41:49.334Z,28.07
2019-05-14T17:45:12.907Z,28.52
2019-05-14T17:48:36.076Z,26.91
2019-05-14T17:51:59.396Z,28.18
2019-05-14T17:55:24.528Z,27.22
2019-05-14T17:59:08.591Z,26.80
2019-05-14T18:02:32.022Z,29.41
2019-05-14T18:05:58.793Z,29.03
2019-05-14T18:09:22.200Z,27.86
2019-05-14T18:12:47.963Z,28.69
2019-05-14T18:16:10.739Z,28.36
2019-05-14T18:19:34.046Z,29.21
2019-05-14T18:22:58.295Z,30.32
2019-05-14T18:26:25.880Z,29.80
2019-05-14T18:29:49.476Z,29.53
2019-05-14T18:33:14.324Z,29.29
2019-05-14T18:36:39.528Z,31.08
2019-05-14T18:40:03.581Z,30.13
2019-05-14T18:43:28.919Z,32.35
2019-05-14T18:46:53.453Z,32.70
2019-05-14T18:50:19.676Z,32.43
2019-05-14T18:53:48.907Z,32.73
2019-05-14T18:57:12.287Z,32.25
2019-05-14T19:00:38.642Z,33.01
2019-05-14T19:04:01.795Z,32.24
2019-05-14T19:07:25.414Z,33.51
2019-05-14T19:10:49.707Z,34.62
2019-05-14T19:14:13.438Z,35.13
2019-05-14T19:17:38.583Z,34.44
2019-05-14T19:21:02.435Z,33.32
2019-05-14T19:24:28.983Z,37.36
2019-05-14T19:27:52.251Z,36.33
2019-05-14T19:31:18.362Z,35.69
2019-05-14T19:34:42.258Z,39.48
2019-05-14T19:38:08.749Z,37.94
2019-05-14T19:41:31.761Z,40.41
2019-05-14T19:45:01.374Z,38.88
2019-05-14T19:48:26.075Z,39.13
2019-05-14T19:51:51.028Z,40.15
2019-05-14T19:55:19.701Z,38.46
2019-05-14T19:58:43.465Z,40.89
2019-05-14T20:02:09.512Z,43.07
2019-05-14T20:05:33.422Z,41.67
2019-05-14T20:08:58.746Z,44.08
2019-05-14T20:12:22.351Z,42.70
2019-05-14T20:15:45.604Z,41.80
2019-05-14T20:19:11.240Z,43.74
2019-05-14T20:22:34.830Z,42.35
2019-05-14T20:25:58.674Z,42.02
2019-05-14T20:29:22.284Z,42.80
2019-05-14T20:32:45.908Z,44.72
2019-05-14T20:36:09.527Z,44.84
2019-05-14T20:39:33.602Z,44.91
2019-05-14T20:42:58.851Z,42.35
2019-05-14T20:46:23.311Z,44.11
2019-05-14T20:49:46.803Z,44.08
2019-05-14T20:53:09.891Z,43.79
2019-05-14T20:56:33.086Z,44.79
2019-05-14T20:59:58.758Z,44.60
2019-05-14T21:03:21.898Z,45.39
2019-05-14T21:06:45.739Z,46.49
2019-05-14T21:10:09.994Z,45.87
2019-05-14T21:13:33.327Z,46.92
2019-05-14T21:16:59.678Z,46.65
2019-05-14T21:20:23.074Z,46.67
2019-05-14T21:23:48.848Z,47.19
2019-05-14T21:27:11.940Z,47.35
2019-05-14T21:30:35.534Z,47.70
2019-05-14T21:33:58.948Z,48.15
2019-05-14T21:37:23.510Z,47.66
2019-05-14T21:40:47.162Z,47.00
2019-05-14T21:44:10.848Z,47.43
2019-05-14T21:47:35.122Z,48.69
2019-05-14T21:51:00.813Z,48.92
2019-05-14T21:54:24.253Z,49.40
2019-05-14T21:57:56.124Z,49.98
2019-05-14T22:01:13.247Z,49.56
2019-05-14T22:04:38.480Z,50.23
2019-05-14T22:08:01.976Z,50.20
2019-05-14T22:11:25.170Z,51.18
2019-05-14T22:14:48.621Z,50.24
2019-05-14T22:18:17.553Z,49.58
2019-05-14T22:21:41.877Z,51.21
2019-05-14T22:25:04.388Z,50.53
2019-05-14T22:28:28.845Z,50.62
2019-05-14T22:31:52.162Z,51.38
2019-05-14T22:35:15.332Z,49.82
2019-05-14T22:38:39.121Z,50.61
2019-05-14T22:42:02.385Z,50.42
2019-05-14T22:45:28.169Z,50.55
2019-05-14T22:48:51.660Z,50.32
2019-05-14T22:52:18.783Z,50.38
2019-05-14T22:55:42.677Z,51.23
2019-05-14T22:59:06.151Z,51.10
2019-05-14T23:02:29.314Z,51.09
2019-05-14T23:05:52.597Z,50.52
2019-05-14T23:09:18.502Z,51.60
2019-05-14T23:12:41.060Z,51.25
2019-05-14T23:16:04.358Z,50.42
2019-05-14T23:19:28.205Z,50.21
2019-05-14T23:22:51.370Z,50.05
2019-05-14T23:26:14.591Z,51.26
2019-05-14T23:29:38.516Z,51.06
2019-05-14T23:33:02.084Z,50.81
2019-05-14T23:36:25.410Z,51.13
2019-05-14T23:39:49.245Z,52.56
2019-05-14T23:43:12.450Z,51.96
2019-05-14T23:46:35.976Z,50.79
2019-05-14T23:49:59.139Z,52.58
2019-05-14T23:53:22.315Z,51.48
2019-05-14T23:56:45.608Z,51.97
